Time;durP1;ratioP1;P1;durP2;ratioP2;P2;SDS_P1;SDS_P2;PMS_P1;PMS_P2;Temp;Humidity;BMP_temperature;BMP_pressure;BME280_temperature;BME280_humidity;BME280_pressure;Samples;Min_cycle;Max_cycle;Signal;HPM_P1;HPM_P2
2023/04/27 00:00:15;;;;;;;;;;;;;;;11.23;66.70;101445.03;7356292;19;19945;-62
2023/04/27 00:02:42;;;;;;;;;;;;;;;11.17;66.65;101436.91;7361556;19;19915;-62
2023/04/27 00:05:10;;;;;;;;;;;;;;;11.18;67.82;101436.72;7361008;19;20661;-62
2023/04/27 00:07:38;;;;;;;;;;;;;;;11.17;67.63;101437.72;7361490;19;19956;-63
2023/04/27 00:10:05;;;;;;;;;;;;;;;11.16;67.36;101438.69;7359032;19;19914;-63
2023/04/27 00:12:32;;;;;;;;;;;;;;;11.12;66.96;101430.22;7362521;19;21281;-62
2023/04/27 00:14:59;;;;;;;;;;;;;;;11.12;67.46;101430.22;7358036;19;19923;-61
2023/04/27 00:17:26;;;;;;;;;;;;;;;11.12;67.19;101426.78;7361737;19;19930;-62
2023/04/27 00:19:53;;;;;;;;;;;;;;;11.09;66.90;101427.06;7363367;19;19989;-62
2023/04/27 00:22:20;;;;;;;;;;;;;;;11.06;67.07;101422.91;7362168;19;20206;-62
2023/04/27 00:24:47;;;;;;;;;;;;;;;11.03;67.23;101419.72;7359581;19;19922;-62
2023/04/27 00:27:13;;;;;;;;;;;;;;;11.02;67.30;101423.34;7360337;19;19922;-63
2023/04/27 00:29:41;;;;;;;;;;;;;;;10.97;67.03;101430.84;7358525;19;19926;-63
2023/04/27 00:32:09;;;;;;;;;;;;;;;10.95;67.66;101422.22;7356293;19;19915;-63
2023/04/27 00:34:37;;;;;;;;;;;;;;;10.95;68.43;101422.22;7360514;19;19933;-62
2023/04/27 00:37:04;;;;;;;;;;;;;;;10.93;68.29;101421.53;7359630;19;21562;-63
2023/04/27 00:39:33;;;;;;;;;;;;;;;10.90;67.73;101416.56;7356460;19;20196;-64
2023/04/27 00:42:00;;;;;;;;;;;;;;;10.89;67.44;101410.44;7360419;19;19925;-63
2023/04/27 00:44:27;;;;;;;;;;;;;;;10.89;67.25;101413.09;7354879;19;20252;-64
2023/04/27 00:46:54;;;;;;;;;;;;;;;10.88;67.34;101415.84;7359960;19;20261;-63
2023/04/27 00:49:22;;;;;;;;;;;;;;;10.86;67.96;101413.38;7359632;19;19927;-63
2023/04/27 00:51:49;;;;;;;;;;;;;;;10.86;68.80;101409.91;7358606;19;19931;-63
2023/04/27 00:54:20;;;;;;;;;;;;;;;10.83;67.78;101405.75;7359591;19;20345;-62
2023/04/27 00:56:47;;;;;;;;;;;;;;;10.83;68.82;101408.38;7361131;19;19926;-61
2023/04/27 00:59:18;;;;;;;;;;;;;;;10.82;69.66;101396.19;7354550;19;20465;-62
2023/04/27 01:01:45;;;;;;;;;;;;;;;10.79;68.48;101380.69;7359747;19;20383;-61
2023/04/27 01:04:12;;;;;;;;;;;;;;;10.77;69.60;101379.97;7359238;19;19927;-63
2023/04/27 01:06:40;;;;;;;;;;;;;;;10.75;69.47;101379.31;7358868;19;19923;-63
2023/04/27 01:09:08;;;;;;;;;;;;;;;10.73;68.85;101373.34;7357309;19;20260;-63
2023/04/27 01:11:35;;;;;;;;;;;;;;;10.71;69.29;101362.13;7356579;19;19915;-64
2023/04/27 01:14:02;;;;;;;;;;;;;;;10.70;69.98;101361.31;7358215;19;19919;-62
2023/04/27 01:16:30;;;;;;;;;;;;;;;10.68;69.85;101352.72;7358495;19;20415;-64
2023/04/27 01:18:57;;;;;;;;;;;;;;;10.68;69.95;101346.63;7360776;19;19998;-62
2023/04/27 01:21:25;;;;;;;;;;;;;;;10.63;70.03;101347.03;7357057;19;19942;-64
2023/04/27 01:23:52;;;;;;;;;;;;;;;10.65;71.09;101344.28;7358777;19;19918;-64
2023/04/27 01:26:19;;;;;;;;;;;;;;;10.64;71.53;101340.81;7356830;19;19915;-63
2023/04/27 01:28:46;;;;;;;;;;;;;;;10.63;71.08;101327.78;7355080;19;19915;-64
2023/04/27 01:31:13;;;;;;;;;;;;;;;10.64;71.20;101330.28;7354999;19;20257;-63
2023/04/27 01:33:41;;;;;;;;;;;;;;;10.61;71.04;101332.38;7359353;19;20316;-62
2023/04/27 01:36:08;;;;;;;;;;;;;;;10.60;71.69;101328.06;7356375;19;19915;-63
2023/04/27 01:38:35;;;;;;;;;;;;;;;10.58;71.59;101328.22;7360117;19;20277;-63
2023/04/27 01:41:03;;;;;;;;;;;;;;;10.56;71.96;101327.53;7354464;19;20372;-61
2023/04/27 01:43:31;;;;;;;;;;;;;;;10.56;72.59;101334.59;7356442;19;19915;-63
2023/04/27 01:46:05;;;;;;;;;;;;;;;10.55;72.74;101328.50;7354128;19;20594;-62
2023/04/27 01:48:32;;;;;;;;;;;;;;;10.54;72.84;101332.09;7361883;19;19990;-62
2023/04/27 01:50:59;;;;;;;;;;;;;;;10.56;73.27;101334.59;7365586;19;20447;-63
2023/04/27 01:53:26;;;;;;;;;;;;;;;10.57;74.01;101334.44;7364888;19;19936;-63
2023/04/27 01:55:53;;;;;;;;;;;;;;;10.58;73.16;101340.53;7364616;19;19919;-63
2023/04/27 01:58:20;;;;;;;;;;;;;;;10.53;73.00;101338.31;7365326;19;19952;-62
2023/04/27 02:00:47;;;;;;;;;;;;;;;10.51;73.13;101340.28;7359945;19;19918;-63
2023/04/27 02:03:14;;;;;;;;;;;;;;;10.49;72.78;101346.63;7363088;19;19922;-61
2023/04/27 02:05:41;;;;;;;;;;;;;;;10.51;74.23;101353.44;7363938;19;20497;-63
2023/04/27 02:08:08;;;;;;;;;;;;;;;10.48;73.34;101345.81;7364938;19;19927;-62
2023/04/27 02:10:35;;;;;;;;;;;;;;;10.48;73.18;101355.50;7359860;19;19941;-62
2023/04/27 02:13:02;;;;;;;;;;;;;;;10.47;73.17;101365.19;7363181;19;19927;-63
2023/04/27 02:15:29;;;;;;;;;;;;;;;10.45;73.31;101364.50;7359403;19;19927;-63
2023/04/27 02:17:57;;;;;;;;;;;;;;;10.45;73.75;101366.31;7364507;19;20507;-62
2023/04/27 02:20:24;;;;;;;;;;;;;;;10.43;73.73;101371.69;7365527;19;19922;-63
2023/04/27 02:22:52;;;;;;;;;;;;;;;10.40;73.26;101365.88;7361842;19;20226;-66
2023/04/27 02:25:19;;;;;;;;;;;;;;;10.39;74.48;101369.47;7360921;19;19962;-63
2023/04/27 02:27:46;;;;;;;;;;;;;;;10.38;73.87;101363.38;7364312;19;20562;-62
2023/04/27 02:30:14;;;;;;;;;;;;;;;10.38;73.87;101363.38;7361815;19;19944;-62
2023/04/27 02:32:41;;;;;;;;;;;;;;;10.34;73.69;101372.53;7362652;19;19947;-63
2023/04/27 02:35:11;;;;;;;;;;;;;;;10.36;74.14;101367.97;7363672;19;20368;-63
2023/04/27 02:37:38;;;;;;;;;;;;;;;10.34;73.67;101361.16;7364703;19;20320;-60
2023/04/27 02:40:06;;;;;;;;;;;;;;;10.32;73.71;101355.22;7362458;19;19927;-62
2023/04/27 02:42:34;;;;;;;;;;;;;;;10.34;74.18;101367.28;7360162;19;19952;-61
2023/04/27 02:45:01;;;;;;;;;;;;;;;10.32;73.96;101361.31;7358344;19;20042;-63
2023/04/27 02:47:28;;;;;;;;;;;;;;;10.30;74.28;101358.00;7362406;19;20013;-63
2023/04/27 02:49:55;;;;;;;;;;;;;;;10.27;74.20;101345.09;7364107;19;19923;-61
2023/04/27 02:52:22;;;;;;;;;;;;;;;10.26;74.00;101356.59;7363773;19;20043;-63
2023/04/27 02:54:49;;;;;;;;;;;;;;;10.22;73.79;101361.28;7360255;19;19990;-62
2023/04/27 02:57:16;;;;;;;;;;;;;;;10.17;74.00;101360.03;7360363;19;19939;-62
2023/04/27 02:59:43;;;;;;;;;;;;;;;10.17;74.82;101358.25;7359019;19;19954;-61
2023/04/27 03:02:10;;;;;;;;;;;;;;;10.15;74.47;101351.44;7361916;19;19982;-63
2023/04/27 03:04:37;;;;;;;;;;;;;;;10.16;74.76;101346.06;7362285;19;21078;-62
2023/04/27 03:07:04;;;;;;;;;;;;;;;10.16;74.76;101343.44;7362560;19;20472;-63
2023/04/27 03:09:31;;;;;;;;;;;;;;;10.18;75.63;101348.56;7361820;19;19935;-63
2023/04/27 03:11:58;;;;;;;;;;;;;;;10.21;76.00;101346.47;7362451;19;20301;-62
2023/04/27 03:14:25;;;;;;;;;;;;;;;10.21;75.42;101345.66;7358440;19;19922;-63
2023/04/27 03:16:54;;;;;;;;;;;;;;;10.20;75.28;101362.41;7362409;19;19922;-63
2023/04/27 03:19:21;;;;;;;;;;;;;;;10.17;74.79;101355.63;7362459;19;20676;-64
2023/04/27 03:21:48;;;;;;;;;;;;;;;10.15;74.88;101354.91;7362872;19;19929;-63
2023/04/27 03:24:16;;;;;;;;;;;;;;;10.17;75.87;101355.63;7362075;19;19922;-62
2023/04/27 03:26:43;;;;;;;;;;;;;;;10.16;75.56;101355.75;7358402;19;20507;-63
2023/04/27 03:29:10;;;;;;;;;;;;;;;10.15;75.85;101351.44;7362800;19;19976;-62
2023/04/27 03:31:37;;;;;;;;;;;;;;;10.18;76.70;101340.69;7359893;19;19928;-61
2023/04/27 03:34:04;;;;;;;;;;;;;;;10.17;76.43;101333.75;7362385;19;20439;-60
2023/04/27 03:36:31;;;;;;;;;;;;;;;10.11;75.52;101327.22;7363773;19;20380;-61
2023/04/27 03:38:58;;;;;;;;;;;;;;;10.10;76.18;101332.63;7361008;19;19954;-62
2023/04/27 03:41:25;;;;;;;;;;;;;;;10.10;76.59;101330.00;7360780;19;20289;-63
2023/04/27 03:43:52;;;;;;;;;;;;;;;10.13;77.79;101329.72;7362763;19;19919;-62
2023/04/27 03:46:19;;;;;;;;;;;;;;;10.15;77.18;101322.53;7351552;19;20006;-61
2023/04/27 03:48:46;;;;;;;;;;;;;;;10.11;76.04;101319.31;7361539;19;19994;-62
2023/04/27 03:51:13;;;;;;;;;;;;;;;10.12;76.78;101322.78;7356984;19;19914;-60
2023/04/27 03:53:40;;;;;;;;;;;;;;;10.10;76.70;101322.09;7358801;19;20335;-62
2023/04/27 03:56:07;;;;;;;;;;;;;;;10.11;77.46;101323.75;7360545;19;19934;-63
2023/04/27 03:58:34;;;;;;;;;;;;;;;10.10;77.61;101330.00;7362221;19;19922;-61
2023/04/27 04:01:01;;;;;;;;;;;;;;;10.11;77.18;101339.53;7354759;19;20357;-62
2023/04/27 04:03:28;;;;;;;;;;;;;;;10.07;77.11;101328.47;7359151;19;19917;-64
2023/04/27 04:05:55;;;;;;;;;;;;;;;10.08;77.49;101319.59;7358733;19;19918;-62
2023/04/27 04:08:22;;;;;;;;;;;;;;;10.07;77.23;101314.47;7365120;19;20557;-64
2023/04/27 04:10:50;;;;;;;;;;;;;;;10.07;76.95;101315.31;7368892;19;20275;-63
2023/04/27 04:13:17;;;;;;;;;;;;;;;10.06;76.48;101312.81;7371499;19;19923;-63
2023/04/27 04:15:44;;;;;;;;;;;;;;;10.03;76.36;101306.03;7361776;19;19954;-62
2023/04/27 04:18:11;;;;;;;;;;;;;;;10.06;77.82;101310.19;7359414;19;21854;-64
2023/04/27 04:20:38;;;;;;;;;;;;;;;10.07;77.79;101309.22;7363549;19;20464;-63
2023/04/27 04:23:06;;;;;;;;;;;;;;;10.04;77.09;101310.34;7362363;19;19987;-63
2023/04/27 04:25:33;;;;;;;;;;;;;;;10.02;76.79;101311.44;7360179;19;19922;-63
2023/04/27 04:27:59;;;;;;;;;;;;;;;10.00;77.00;101300.25;7359982;19;19929;-63
2023/04/27 04:30:27;;;;;;;;;;;;;;;10.02;77.90;101298.28;7355860;19;19943;-62
2023/04/27 04:32:54;;;;;;;;;;;;;;;10.02;77.57;101303.53;7360649;19;19940;-62
2023/04/27 04:35:21;;;;;;;;;;;;;;;9.98;77.42;101302.16;7359619;19;19925;-63
2023/04/27 04:37:48;;;;;;;;;;;;;;;10.00;77.81;101306.34;7360752;19;19907;-63
2023/04/27 04:40:15;;;;;;;;;;;;;;;10.01;78.39;101297.44;7360833;19;20344;-63
2023/04/27 04:42:42;;;;;;;;;;;;;;;9.98;77.63;101291.66;7360656;19;19967;-65
2023/04/27 04:45:10;;;;;;;;;;;;;;;9.97;77.07;101293.44;7357167;19;19918;-63
2023/04/27 04:47:38;;;;;;;;;;;;;;;9.99;77.29;101288.06;7357869;19;19937;-62
2023/04/27 04:50:06;;;;;;;;;;;;;;;9.98;77.61;101292.47;7358854;19;20034;-63
2023/04/27 04:52:33;;;;;;;;;;;;;;;9.99;77.83;101288.06;7359483;19;19935;-64
2023/04/27 04:55:00;;;;;;;;;;;;;;;10.01;77.39;101284.31;7356678;19;20392;-63
2023/04/27 04:57:27;;;;;;;;;;;;;;;10.03;77.49;101287.66;7356546;19;19922;-63
2023/04/27 04:59:54;;;;;;;;;;;;;;;10.05;77.96;101288.34;7357709;19;20203;-63
2023/04/27 05:02:21;;;;;;;;;;;;;;;10.07;77.32;101298.69;7355819;19;20001;-63
2023/04/27 05:04:50;;;;;;;;;;;;;;;10.09;77.33;101297.63;7359180;19;19926;-63
2023/04/27 05:07:18;;;;;;;;;;;;;;;10.11;77.33;101305.34;7359146;19;19919;-63
2023/04/27 05:09:50;;;;;;;;;;;;;;;10.16;77.36;101303.16;7355701;19;20780;-63
2023/04/27 05:12:17;;;;;;;;;;;;;;;10.18;77.68;101293.34;7357995;19;19929;-63
2023/04/27 05:14:44;;;;;;;;;;;;;;;10.21;77.11;101285.16;7356927;19;20310;-67
2023/04/27 05:17:11;;;;;;;;;;;;;;;10.25;77.36;101286.56;7359224;19;19919;-62
2023/04/27 05:19:38;;;;;;;;;;;;;;;10.26;76.88;101278.53;7358522;19;19938;-62
2023/04/27 05:22:05;;;;;;;;;;;;;;;10.29;78.11;101282.69;7358804;19;19919;-62
2023/04/27 05:24:32;;;;;;;;;;;;;;;10.29;76.83;101280.06;7365468;19;19971;-63
2023/04/27 05:26:59;;;;;;;;;;;;;;;10.29;75.80;101283.53;7364122;19;20439;-62
2023/04/27 05:29:28;;;;;;;;;;;;;;;10.31;75.91;101286.00;7361982;19;19919;-64
2023/04/27 05:31:55;;;;;;;;;;;;;;;10.36;75.32;101285.59;7364189;19;19919;-63
2023/04/27 05:34:22;;;;;;;;;;;;;;;10.38;74.99;101283.66;7365538;19;19919;-63
2023/04/27 05:36:49;;;;;;;;;;;;;;;10.42;75.19;101292.91;7365312;19;19927;-62
2023/04/27 05:39:16;;;;;;;;;;;;;;;10.43;75.08;101287.50;7362838;19;19995;-62
2023/04/27 05:41:43;;;;;;;;;;;;;;;10.49;75.12;101284.31;7365117;19;19990;-64
2023/04/27 05:44:10;;;;;;;;;;;;;;;10.53;75.43;101277.81;7361943;19;19919;-64
2023/04/27 05:46:37;;;;;;;;;;;;;;;10.55;74.71;101273.25;7366885;19;19911;-62
2023/04/27 05:49:04;;;;;;;;;;;;;;;10.59;74.27;101279.88;7363733;19;19919;-63
2023/04/27 05:51:32;;;;;;;;;;;;;;;10.66;74.25;101283.63;7365910;19;20497;-65
2023/04/27 05:54:00;;;;;;;;;;;;;;;10.72;73.83;101285.66;7362520;19;19915;-62
2023/04/27 05:56:27;;;;;;;;;;;;;;;10.78;73.48;101281.63;7364198;19;19925;-64
2023/04/27 05:58:55;;;;;;;;;;;;;;;10.84;72.87;101299.47;7365436;19;19963;-63
2023/04/27 06:01:22;;;;;;;;;;;;;;;10.85;72.55;101297.69;7362522;19;19914;-63
2023/04/27 06:03:49;;;;;;;;;;;;;;;10.90;73.19;101298.91;7367259;19;19918;-64
2023/04/27 06:06:17;;;;;;;;;;;;;;;10.95;72.98;101296.69;7364281;19;19935;-63
2023/04/27 06:08:44;;;;;;;;;;;;;;;10.98;72.38;101293.75;7364750;19;19925;-64
2023/04/27 06:11:11;;;;;;;;;;;;;;;11.03;72.46;101304.69;7367734;19;19919;-63
2023/04/27 06:13:39;;;;;;;;;;;;;;;11.09;72.09;101303.28;7368754;19;19919;-63
2023/04/27 06:16:06;;;;;;;;;;;;;;;11.09;72.01;101303.28;7360305;19;19935;-62
2023/04/27 06:18:34;;;;;;;;;;;;;;;11.17;72.51;101303.41;7362138;19;19918;-62
2023/04/27 06:21:01;;;;;;;;;;;;;;;11.21;71.76;101307.41;7358909;19;20361;-63
2023/04/27 06:23:28;;;;;;;;;;;;;;;11.26;72.12;101304.34;7361389;19;20256;-65
2023/04/27 06:25:56;;;;;;;;;;;;;;;11.32;72.33;101311.66;7364292;19;19943;-64
2023/04/27 06:28:23;;;;;;;;;;;;;;;11.37;72.17;101304.97;7361437;19;19919;-63
2023/04/27 06:30:50;;;;;;;;;;;;;;;11.40;72.18;101309.13;7358097;19;19938;-63
2023/04/27 06:33:17;;;;;;;;;;;;;;;11.44;71.44;101303.41;7364379;19;19955;-63
2023/04/27 06:35:45;;;;;;;;;;;;;;;11.45;71.39;101301.59;7363982;19;19918;-64
2023/04/27 06:38:13;;;;;;;;;;;;;;;11.50;71.81;101300.19;7365599;19;19921;-63
2023/04/27 06:40:40;;;;;;;;;;;;;;;11.53;71.16;101312.22;7362376;19;19919;-63
2023/04/27 06:43:10;;;;;;;;;;;;;;;11.53;70.32;101307.78;7365094;19;19918;-61
2023/04/27 06:45:37;;;;;;;;;;;;;;;11.56;69.36;101296.13;7358296;19;19939;-61
2023/04/27 06:48:04;;;;;;;;;;;;;;;11.54;69.57;101298.91;7361780;19;19962;-63
2023/04/27 06:50:31;;;;;;;;;;;;;;;11.48;69.48;101283.69;7361969;19;20429;-63
2023/04/27 06:52:58;;;;;;;;;;;;;;;11.52;70.17;101284.22;7363990;19;20382;-67
2023/04/27 06:55:26;;;;;;;;;;;;;;;11.54;70.89;101287.53;7358611;19;20193;-62
2023/04/27 06:57:53;;;;;;;;;;;;;;;11.55;70.02;101287.41;7360871;19;20376;-63
2023/04/27 07:00:20;;;;;;;;;;;;;;;11.61;69.04;101285.97;7358506;19;19929;-63
2023/04/27 07:02:47;;;;;;;;;;;;;;;11.64;69.19;101285.66;7363678;19;20483;-62
2023/04/27 07:05:15;;;;;;;;;;;;;;;11.66;68.56;101282.91;7359557;19;19933;-63
2023/04/27 07:07:42;;;;;;;;;;;;;;;11.64;68.88;101287.47;7361663;19;20789;-62
2023/04/27 07:10:09;;;;;;;;;;;;;;;11.66;69.33;101290.81;7359445;19;20279;-63
2023/04/27 07:12:37;;;;;;;;;;;;;;;11.69;68.90;101293.13;7363860;19;19923;-63
2023/04/27 07:15:05;;;;;;;;;;;;;;;11.72;69.01;101292.84;7359056;19;20341;-63
2023/04/27 07:17:32;;;;;;;;;;;;;;;11.75;69.21;101295.22;7360378;19;19939;-63
2023/04/27 07:20:00;;;;;;;;;;;;;;;11.75;68.89;101301.31;7361154;19;19923;-64
2023/04/27 07:22:27;;;;;;;;;;;;;;;11.79;68.57;101288.66;7362601;19;20403;-64
2023/04/27 07:24:54;;;;;;;;;;;;;;;11.85;68.82;101286.25;7358076;19;19943;-63
2023/04/27 07:27:22;;;;;;;;;;;;;;;11.91;68.91;101280.41;7361795;19;20275;-63
2023/04/27 07:29:49;;;;;;;;;;;;;;;11.97;68.54;101278.97;7358131;19;19974;-63
2023/04/27 07:32:16;;;;;;;;;;;;;;;11.99;67.29;101280.47;7358959;19;19918;-62
2023/04/27 07:34:44;;;;;;;;;;;;;;;12.00;66.99;101279.47;7362174;19;20609;-64
2023/04/27 07:37:20;;;;;;;;;;;;;;;12.04;66.89;101276.56;7361930;19;19919;-63
2023/04/27 07:39:49;;;;;;;;;;;;;;;12.07;66.62;101273.63;7362841;19;20593;-63
2023/04/27 07:42:18;;;;;;;;;;;;;;;12.11;66.47;101273.16;7357995;19;19915;-62
2023/04/27 07:44:45;;;;;;;;;;;;;;;12.18;66.03;101274.22;7359674;19;20657;-62
2023/04/27 07:47:12;;;;;;;;;;;;;;;12.27;65.54;101278.56;7359758;19;19953;-63
2023/04/27 07:49:40;;;;;;;;;;;;;;;12.37;64.99;101284.59;7358890;19;19956;-61
2023/04/27 07:52:07;;;;;;;;;;;;;;;12.48;65.08;101287.97;7362784;19;20332;-60
2023/04/27 07:54:35;;;;;;;;;;;;;;;12.56;64.66;101288.00;7359422;19;20645;-63
2023/04/27 07:57:11;;;;;;;;;;;;;;;12.63;64.70;101289.06;7359551;19;19978;-62
2023/04/27 07:59:38;;;;;;;;;;;;;;;12.68;65.52;101278.88;7358429;19;19919;-62
2023/04/27 08:02:06;;;;;;;;;;;;;;;12.70;64.32;101284.81;7359528;19;19923;-62
2023/04/27 08:04:45;;;;;;;;;;;;;;;12.69;63.38;101285.81;7358024;19;19961;-62
2023/04/27 08:07:15;;;;;;;;;;;;;;;12.68;63.44;101284.16;7358664;19;19922;-62
2023/04/27 08:09:45;;;;;;;;;;;;;;;12.64;62.78;101275.72;7360690;19;20023;-62
2023/04/27 08:12:26;;;;;;;;;;;;;;;12.64;62.31;101266.97;7355860;19;19930;-63
2023/04/27 08:14:56;;;;;;;;;;;;;;;12.63;62.11;101263.50;7357544;19;20251;-61
2023/04/27 08:17:25;;;;;;;;;;;;;;;12.64;61.57;101266.97;7357370;19;19987;-63
2023/04/27 08:19:55;;;;;;;;;;;;;;;12.64;61.32;101262.53;7359349;19;19926;-63
2023/04/27 08:22:25;;;;;;;;;;;;;;;12.70;62.09;101261.88;7361161;19;19965;-62
2023/04/27 08:24:53;;;;;;;;;;;;;;;12.71;61.35;101263.53;7357278;19;19915;-62
2023/04/27 08:27:24;;;;;;;;;;;;;;;12.73;60.64;101264.22;7360826;19;19919;-64
2023/04/27 08:30:00;;;;;;;;;;;;;;;12.79;60.34;101265.41;7359460;19;19982;-63
2023/04/27 08:32:46;;;;;;;;;;;;;;;12.89;59.51;101273.22;7360861;19;20448;-62
2023/04/27 08:35:27;;;;;;;;;;;;;;;12.95;60.24;101276.06;7358654;19;19979;-62
2023/04/27 08:38:19;;;;;;;;;;;;;;;13.04;59.62;101269.84;7359618;19;20450;-59
2023/04/27 08:41:06;;;;;;;;;;;;;;;13.10;58.13;101266.56;7358360;19;19922;-62
2023/04/27 08:43:52;;;;;;;;;;;;;;;13.14;58.82;101261.81;7357212;19;19978;-61
2023/04/27 08:46:20;;;;;;;;;;;;;;;13.18;57.88;101255.22;7354037;19;20458;-63
2023/04/27 08:48:50;;;;;;;;;;;;;;;13.27;57.73;101256.91;7360021;19;19915;-62
2023/04/27 08:51:17;;;;;;;;;;;;;;;13.30;57.27;101266.34;7351802;19;19939;-62
2023/04/27 08:53:48;;;;;;;;;;;;;;;13.37;56.54;101267.34;7359881;19;20305;-62
2023/04/27 08:56:36;;;;;;;;;;;;;;;13.46;57.04;101263.75;7355885;19;20650;-62
2023/04/27 08:59:12;;;;;;;;;;;;;;;13.52;56.61;101260.44;7354482;19;19918;-61
2023/04/27 09:01:44;;;;;;;;;;;;;;;13.58;55.66;101250.06;7355488;19;19930;-63
2023/04/27 09:04:12;;;;;;;;;;;;;;;13.64;55.61;101262.66;7358283;19;21617;-62
2023/04/27 09:06:45;;;;;;;;;;;;;;;13.67;54.51;101253.53;7357211;19;19918;-61
2023/04/27 09:09:23;;;;;;;;;;;;;;;13.75;54.18;101236.88;7358840;19;19946;-61
2023/04/27 09:11:59;;;;;;;;;;;;;;;13.87;54.05;101238.19;7356150;19;20345;-63
2023/04/27 09:14:29;;;;;;;;;;;;;;;13.93;52.58;101232.25;7355481;19;20752;-63
2023/04/27 09:16:58;;;;;;;;;;;;;;;13.98;52.56;101230.78;7355566;19;19919;-63
2023/04/27 09:19:27;;;;;;;;;;;;;;;14.11;52.96;101227.66;7356082;19;19943;-61
2023/04/27 09:22:03;;;;;;;;;;;;;;;14.14;51.85;101222.84;7353338;19;20349;-63
2023/04/27 09:24:31;;;;;;;;;;;;;;;14.23;51.94;101222.81;7356137;19;20216;-62
2023/04/27 09:26:58;;;;;;;;;;;;;;;14.34;52.26;101217.19;7353333;19;19927;-60
2023/04/27 09:29:37;;;;;;;;;;;;;;;14.44;51.16;101212.56;7313960;19;19915;-61
2023/04/27 09:32:16;;;;;;;;;;;;;;;14.50;49.96;101206.63;7348670;19;21608;-62
2023/04/27 09:34:43;;;;;;;;;;;;;;;14.59;49.49;101218.00;7346013;19;20549;-62
2023/04/27 09:37:18;;;;;;;;;;;;;;;14.68;49.63;101220.47;7344943;19;20333;-62
2023/04/27 09:40:15;;;;;;;;;;;;;;;14.76;49.00;101207.22;7348198;19;19930;-62
2023/04/27 09:42:47;;;;;;;;;;;;;;;14.89;48.36;101206.66;7346907;19;19927;-62
2023/04/27 09:45:15;;;;;;;;;;;;;;;14.94;47.95;101215.75;7341669;19;21031;-66
2023/04/27 09:47:42;;;;;;;;;;;;;;;15.04;47.01;101204.09;7350472;19;19923;-63
2023/04/27 09:50:12;;;;;;;;;;;;;;;15.11;47.20;101205.91;7352504;19;20487;-63
2023/04/27 09:52:41;;;;;;;;;;;;;;;15.18;46.88;101204.22;7354195;19;20308;-62
2023/04/27 09:55:12;;;;;;;;;;;;;;;15.24;46.67;101206.16;7347529;19;19930;-66
2023/04/27 09:57:50;;;;;;;;;;;;;;;15.29;46.28;101203.00;7348266;19;19911;-63
2023/04/27 10:00:24;;;;;;;;;;;;;;;15.26;47.54;101206.84;7349126;19;19934;-63
2023/04/27 10:03:00;;;;;;;;;;;;;;;15.33;48.77;101209.63;7353856;19;19933;-61
2023/04/27 10:05:35;;;;;;;;;;;;;;;15.26;47.38;101206.00;7346744;19;19926;-66
2023/04/27 10:08:05;;;;;;;;;;;;;;;15.27;47.91;101194.41;7350443;19;19922;-63
2023/04/27 10:10:41;;;;;;;;;;;;;;;15.23;48.50;101191.28;7359111;19;19915;-63
2023/04/27 10:13:19;;;;;;;;;;;;;;;15.25;49.52;101191.09;7359709;19;20010;-63
2023/04/27 10:15:47;;;;;;;;;;;;;;;15.19;48.75;101203.22;7354490;19;22345;-62
2023/04/27 10:18:26;;;;;;;;;;;;;;;15.14;49.67;101207.38;7355859;19;20019;-61
2023/04/27 10:20:54;;;;;;;;;;;;;;;15.14;49.79;101194.13;7357948;19;20403;-63
2023/04/27 10:23:22;;;;;;;;;;;;;;;15.16;49.90;101195.63;7356694;19;19923;-62
2023/04/27 10:25:52;;;;;;;;;;;;;;;15.18;50.22;101192.81;7355974;19;19919;-63
2023/04/27 10:28:20;;;;;;;;;;;;;;;15.16;51.01;101186.84;7358805;19;20401;-64
2023/04/27 10:30:52;;;;;;;;;;;;;;;15.19;50.59;101183.81;7352847;19;19919;-62
2023/04/27 10:33:22;;;;;;;;;;;;;;;15.17;50.39;101181.38;7358957;19;20275;-60
2023/04/27 10:35:59;;;;;;;;;;;;;;;15.21;51.36;101171.22;7356152;19;20476;-72
2023/04/27 10:38:28;;;;;;;;;;;;;;;15.28;50.72;101177.50;7360816;19;19927;-62
2023/04/27 10:41:00;;;;;;;;;;;;;;;15.42;50.06;101166.13;7359229;19;21480;-62
2023/04/27 10:43:30;;;;;;;;;;;;;;;15.55;51.05;101152.31;7360093;19;20009;-61
2023/04/27 10:46:07;;;;;;;;;;;;;;;15.66;49.80;101162.50;7353263;19;19934;-62
2023/04/27 10:48:39;;;;;;;;;;;;;;;15.72;49.24;101144.06;7355707;19;19918;-61
2023/04/27 10:51:07;;;;;;;;;;;;;;;15.82;49.19;101155.25;7358314;19;19923;-62
2023/04/27 10:53:37;;;;;;;;;;;;;;;15.94;49.36;101145.03;7357202;19;19952;-62
2023/04/27 10:56:12;;;;;;;;;;;;;;;16.06;49.08;101156.84;7353777;19;19978;-62
2023/04/27 10:58:42;;;;;;;;;;;;;;;16.12;47.73;101150.00;7359014;19;20673;-61
2023/04/27 11:01:29;;;;;;;;;;;;;;;16.21;48.09;101141.75;7357000;19;19933;-62
2023/04/27 11:04:00;;;;;;;;;;;;;;;16.24;46.96;101144.06;7356107;19;20377;-64
2023/04/27 11:06:29;;;;;;;;;;;;;;;16.22;47.38;101130.16;7354603;19;19918;-61
2023/04/27 11:08:56;;;;;;;;;;;;;;;16.21;46.45;101122.34;7357963;19;20618;-63
2023/04/27 11:11:25;;;;;;;;;;;;;;;16.23;46.16;101121.19;7348817;19;20347;-63
2023/04/27 11:13:54;;;;;;;;;;;;;;;16.21;46.25;101111.72;7358000;19;19927;-63
2023/04/27 11:16:29;;;;;;;;;;;;;;;16.24;46.24;101104.25;7354714;19;20294;-62
2023/04/27 11:19:09;;;;;;;;;;;;;;;16.26;45.51;101109.34;7358003;19;19925;-61
2023/04/27 11:22:05;;;;;;;;;;;;;;;16.30;46.27;101110.66;7356736;19;19919;-61
2023/04/27 11:24:39;;;;;;;;;;;;;;;16.26;45.89;101098.72;7355201;19;19920;-63
2023/04/27 11:27:12;;;;;;;;;;;;;;;16.26;45.96;101096.91;7356617;19;20456;-62
2023/04/27 11:29:40;;;;;;;;;;;;;;;16.18;46.34;101091.69;7351847;19;20600;-62
2023/04/27 11:32:17;;;;;;;;;;;;;;;16.23;46.48;101072.56;7351217;19;19922;-61
2023/04/27 11:34:54;;;;;;;;;;;;;;;16.19;46.93;101087.22;7354016;19;20005;-63
2023/04/27 11:37:25;;;;;;;;;;;;;;;16.20;46.89;101073.72;7352204;19;19918;-62
2023/04/27 11:40:13;;;;;;;;;;;;;;;16.23;47.02;101072.56;7354476;19;19919;-61
2023/04/27 11:42:57;;;;;;;;;;;;;;;16.24;47.95;101071.56;7357500;19;19924;-61
2023/04/27 11:45:29;;;;;;;;;;;;;;;16.25;47.66;101068.69;7350716;19;19927;-62
2023/04/27 11:48:15;;;;;;;;;;;;;;;16.25;47.35;101074.00;7355563;19;19921;-63
2023/04/27 11:50:50;;;;;;;;;;;;;;;16.25;46.98;101067.91;7356191;19;19922;-66
2023/04/27 11:53:36;;;;;;;;;;;;;;;16.24;46.64;101067.06;7354599;19;19922;-62
2023/04/27 11:56:09;;;;;;;;;;;;;;;16.19;46.05;101056.16;7352130;19;19930;-63
2023/04/27 11:58:39;;;;;;;;;;;;;;;16.21;46.01;101055.97;7354448;19;19925;-62
2023/04/27 12:01:09;;;;;;;;;;;;;;;16.24;46.88;101048.47;7350532;19;19936;-62
2023/04/27 12:03:37;;;;;;;;;;;;;;;16.29;47.15;101057.72;7355053;19;19919;-63
2023/04/27 12:06:09;;;;;;;;;;;;;;;16.30;46.87;101046.09;7351775;19;19937;-61
2023/04/27 12:08:58;;;;;;;;;;;;;;;16.33;48.04;101041.22;7355342;19;19932;-62
2023/04/27 12:11:29;;;;;;;;;;;;;;;16.37;47.39;101031.03;7352125;19;20007;-62
2023/04/27 12:13:59;;;;;;;;;;;;;;;16.41;47.01;101043.78;7356178;19;19918;-63
2023/04/27 12:16:30;;;;;;;;;;;;;;;16.43;47.31;101040.94;7351218;19;19927;-61
2023/04/27 12:18:58;;;;;;;;;;;;;;;16.45;47.04;101041.59;7354440;19;19927;-63
2023/04/27 12:21:26;;;;;;;;;;;;;;;16.45;47.45;101041.59;7355353;19;19957;-64
2023/04/27 12:23:53;;;;;;;;;;;;;;;16.40;47.47;101030.69;7357237;19;20502;-62
2023/04/27 12:26:25;;;;;;;;;;;;;;;16.33;47.23;101025.28;7351289;19;19947;-63
2023/04/27 12:28:55;;;;;;;;;;;;;;;16.34;47.54;101016.31;7356256;19;19927;-62
2023/04/27 12:31:24;;;;;;;;;;;;;;;16.36;46.90;101016.13;7350188;19;19919;-61
2023/04/27 12:33:53;;;;;;;;;;;;;;;16.35;46.99;101017.97;7351230;19;19935;-63
2023/04/27 12:36:22;;;;;;;;;;;;;;;16.42;47.92;101026.81;7351786;19;19930;-62
2023/04/27 12:38:51;;;;;;;;;;;;;;;16.48;47.43;101019.94;7354156;19;19951;-62
2023/04/27 12:41:18;;;;;;;;;;;;;;;16.52;48.18;101030.00;7357794;19;19964;-63
2023/04/27 12:43:47;;;;;;;;;;;;;;;16.58;48.16;101018.69;7357466;19;19949;-64
2023/04/27 12:46:19;;;;;;;;;;;;;;;16.63;48.01;101010.16;7353069;19;20335;-63
2023/04/27 12:49:05;;;;;;;;;;;;;;;16.63;48.06;100999.50;7359417;19;20513;-63